Time;durP1;ratioP1;P1;durP2;ratioP2;P2;SDS_P1;SDS_P2;PMS_P1;PMS_P2;Temp;Humidity;BMP_temperature;BMP_pressure;BME280_temperature;BME280_humidity;BME280_pressure;Samples;Min_cycle;Max_cycle;Signal;HPM_P1;HPM_P2
2024/01/05 00:01:41;;;;;;;11.73;3.40;;;10.40;80.70;;;;;;5078162;28;20318;-62
2024/01/05 00:04:07;;;;;;;9.20;3.33;;;10.50;80.80;;;;;;5076708;28;20161;-62
2024/01/05 00:06:37;;;;;;;13.20;3.40;;;10.40;80.80;;;;;;5079636;28;20118;-62
2024/01/05 00:09:02;;;;;;;11.75;3.50;;;10.40;80.90;;;;;;5079023;28;20141;-62
2024/01/05 00:11:28;;;;;;;11.35;3.80;;;10.40;80.90;;;;;;5076889;28;20055;-62
2024/01/05 00:13:54;;;;;;;11.63;3.60;;;10.40;80.90;;;;;;5077412;28;20036;-62
2024/01/05 00:16:21;;;;;;;11.35;4.35;;;10.40;81.00;;;;;;5077194;28;20024;-62
2024/01/05 00:18:48;;;;;;;12.63;3.92;;;10.40;81.00;;;;;;5081946;28;20037;-62
2024/01/05 00:21:27;;;;;;;10.52;3.65;;;10.40;81.10;;;;;;5060470;28;20139;-62
2024/01/05 00:23:55;;;;;;;12.32;4.43;;;10.40;81.10;;;;;;5087230;28;20396;-62
2024/01/05 00:26:21;;;;;;;13.77;5.13;;;10.40;81.20;;;;;;5077746;28;20349;-62
2024/01/05 00:28:48;;;;;;;11.13;4.00;;;10.40;81.20;;;;;;5077447;28;20025;-62
2024/01/05 00:31:15;;;;;;;12.35;4.93;;;10.40;81.20;;;;;;5080810;28;20051;-62
2024/01/05 00:33:42;;;;;;;10.95;4.97;;;10.40;81.20;;;;;;5074995;28;20357;-62
2024/01/05 00:36:11;;;;;;;14.23;4.80;;;10.40;81.20;;;;;;5077164;28;20028;-62
2024/01/05 00:38:38;;;;;;;12.50;5.03;;;10.40;81.20;;;;;;5076585;28;20055;-62
2024/01/05 00:41:04;;;;;;;12.35;4.90;;;10.40;81.20;;;;;;5076870;28;20024;-62
2024/01/05 00:43:30;;;;;;;13.77;5.50;;;10.40;81.30;;;;;;5077651;28;20036;-62
2024/01/05 00:45:56;;;;;;;11.30;4.60;;;10.40;81.40;;;;;;5075933;28;20028;-62
2024/01/05 00:48:22;;;;;;;10.82;4.80;;;10.40;81.40;;;;;;5058464;28;20020;-62
2024/01/05 00:50:48;;;;;;;15.48;5.72;;;10.40;81.40;;;;;;5075345;28;20412;-62
2024/01/05 00:53:14;;;;;;;12.77;4.82;;;10.40;81.40;;;;;;5084510;28;20628;-62
2024/01/05 00:55:40;;;;;;;12.88;4.20;;;10.40;81.40;;;;;;5081516;28;20115;-62
2024/01/05 00:58:06;;;;;;;11.63;5.10;;;10.50;81.50;;;;;;5075819;28;20170;-62
2024/01/05 01:00:32;;;;;;;13.48;4.90;;;10.50;81.40;;;;;;5058727;28;20016;-62
2024/01/05 01:02:57;;;;;;;13.68;4.50;;;10.50;81.40;;;;;;5059630;28;20514;-62
2024/01/05 01:05:23;;;;;;;10.93;4.28;;;10.50;82.10;;;;;;5075478;28;20339;-62
2024/01/05 01:07:49;;;;;;;13.90;5.30;;;10.50;81.40;;;;;;5073606;28;20032;-62
2024/01/05 01:10:15;;;;;;;18.13;5.53;;;10.50;81.40;;;;;;5082697;28;20036;-62
2024/01/05 01:12:41;;;;;;;13.90;5.18;;;10.50;81.50;;;;;;5081574;28;20028;-62
2024/01/05 01:15:07;;;;;;;13.80;4.47;;;10.50;81.40;;;;;;5075490;28;20353;-62
2024/01/05 01:17:34;;;;;;;10.57;3.80;;;10.50;81.40;;;;;;5078360;28;20337;-62
2024/01/05 01:20:00;;;;;;;14.73;4.30;;;10.50;81.40;;;;;;5078292;28;20051;-62
2024/01/05 01:22:25;;;;;;;10.82;4.32;;;10.60;81.40;;;;;;5077238;28;20017;-62
2024/01/05 01:24:51;;;;;;;12.50;4.78;;;10.60;81.40;;;;;;5078663;28;20452;-62
2024/01/05 01:27:18;;;;;;;13.15;4.22;;;10.60;81.40;;;;;;5080642;28;20023;-62
2024/01/05 01:29:44;;;;;;;12.30;4.05;;;10.60;81.40;;;;;;5079776;28;20384;-62
2024/01/05 01:32:10;;;;;;;12.85;5.05;;;10.50;81.40;;;;;;5076358;28;20141;-62
2024/01/05 01:34:39;;;;;;;11.13;4.45;;;10.50;81.40;;;;;;5075611;28;20033;-62
2024/01/05 01:37:05;;;;;;;12.68;4.65;;;10.50;81.40;;;;;;5076242;28;20032;-62
2024/01/05 01:39:31;;;;;;;12.68;4.70;;;10.50;81.50;;;;;;5076458;28;20119;-62
2024/01/05 01:41:57;;;;;;;11.73;5.35;;;10.50;81.50;;;;;;5081419;28;20103;-62
2024/01/05 01:44:23;;;;;;;11.90;4.97;;;10.50;81.50;;;;;;5087731;28;20032;-62
2024/01/05 01:46:54;;;;;;;13.93;4.95;;;10.40;81.50;;;;;;5076933;28;20021;-62
2024/01/05 01:49:20;;;;;;;13.15;5.07;;;10.40;81.50;;;;;;5074657;28;20060;-62
2024/01/05 01:51:46;;;;;;;9.88;4.63;;;10.40;81.50;;;;;;5075391;28;20033;-62
2024/01/05 01:54:12;;;;;;;10.45;4.40;;;10.40;81.50;;;;;;5075895;28;20032;-62
2024/01/05 01:56:39;;;;;;;13.35;4.93;;;10.50;81.50;;;;;;5079181;28;20040;-62
2024/01/05 01:59:06;;;;;;;13.27;4.93;;;10.50;81.50;;;;;;5074951;28;20579;-62
2024/01/05 02:01:32;;;;;;;13.85;4.53;;;10.40;81.50;;;;;;5075857;28;20066;-62
2024/01/05 02:03:58;;;;;;;10.15;4.32;;;10.50;81.50;;;;;;5075077;28;20091;-62
2024/01/05 02:06:24;;;;;;;14.73;4.88;;;10.50;81.50;;;;;;5077215;28;20032;-62
2024/01/05 02:08:51;;;;;;;12.13;4.05;;;10.50;81.50;;;;;;5076199;28;20365;-62
2024/01/05 02:11:17;;;;;;;10.88;3.80;;;10.50;81.40;;;;;;5075892;28;20075;-62
2024/01/05 02:13:43;;;;;;;8.65;3.45;;;10.50;81.40;;;;;;5081017;28;20024;-62
2024/01/05 02:16:10;;;;;;;9.88;4.55;;;10.50;81.40;;;;;;5090538;28;20052;-62
2024/01/05 02:18:35;;;;;;;12.85;3.70;;;10.50;81.60;;;;;;5084028;28;20533;-62
2024/01/05 02:21:03;;;;;;;11.68;3.58;;;10.50;81.50;;;;;;5072996;28;20083;-62
2024/01/05 02:23:30;;;;;;;12.30;3.22;;;10.60;81.50;;;;;;5074029;28;20027;-62
2024/01/05 02:25:58;;;;;;;8.88;3.42;;;10.50;81.50;;;;;;5074652;28;20021;-62
2024/01/05 02:28:25;;;;;;;9.30;2.67;;;10.50;81.60;;;;;;5088351;28;20101;-62
2024/01/05 02:30:54;;;;;;;10.23;2.78;;;10.50;81.60;;;;;;5081341;28;20060;-62
2024/01/05 02:33:20;;;;;;;12.63;2.90;;;10.50;81.60;;;;;;5074151;28;20032;-62
2024/01/05 02:35:46;;;;;;;7.65;2.65;;;10.50;81.70;;;;;;5076069;28;20063;-62
2024/01/05 02:38:12;;;;;;;10.35;2.90;;;10.50;81.70;;;;;;5084897;28;20031;-62
2024/01/05 02:40:37;;;;;;;10.60;3.05;;;10.50;81.70;;;;;;5079357;28;20392;-62
2024/01/05 02:43:03;;;;;;;8.20;2.55;;;10.50;81.70;;;;;;5073589;28;20020;-62
2024/01/05 02:45:29;;;;;;;9.48;2.92;;;10.50;81.70;;;;;;5072882;28;20361;-62
2024/01/05 02:47:55;;;;;;;10.63;2.45;;;10.60;81.80;;;;;;5063133;28;20027;-62
2024/01/05 02:50:21;;;;;;;7.05;2.03;;;10.60;81.90;;;;;;5069254;28;20032;-62
2024/01/05 02:52:47;;;;;;;9.75;2.40;;;10.60;81.80;;;;;;5068927;28;20028;-63
2024/01/05 02:55:13;;;;;;;9.02;2.22;;;10.60;81.80;;;;;;5070983;28;20020;-62
2024/01/05 02:57:41;;;;;;;9.82;2.55;;;10.60;81.90;;;;;;5076053;28;20026;-62
2024/01/05 03:00:07;;;;;;;6.57;2.40;;;10.60;81.80;;;;;;5074495;28;20083;-62
2024/01/05 03:02:34;;;;;;;6.78;2.45;;;10.60;81.80;;;;;;5072062;28;20020;-62
2024/01/05 03:04:59;;;;;;;12.60;3.13;;;10.60;81.80;;;;;;5056333;28;20507;-62
2024/01/05 03:07:26;;;;;;;10.50;2.78;;;10.60;81.80;;;;;;5076772;28;20024;-62
2024/01/05 03:09:51;;;;;;;9.00;2.20;;;10.60;81.80;;;;;;5055502;28;20111;-62
2024/01/05 03:12:20;;;;;;;9.85;2.65;;;10.70;81.90;;;;;;5072279;28;20108;-62
2024/01/05 03:14:46;;;;;;;6.55;2.10;;;10.70;81.80;;;;;;5073201;28;20532;-62
2024/01/05 03:17:12;;;;;;;8.73;2.47;;;10.70;81.80;;;;;;5056346;28;20111;-62
2024/01/05 03:19:38;;;;;;;8.90;2.47;;;10.70;81.80;;;;;;5073225;28;20441;-62
2024/01/05 03:22:04;;;;;;;11.75;2.85;;;10.70;81.80;;;;;;5073326;28;20033;-62
2024/01/05 03:24:29;;;;;;;6.90;2.15;;;10.70;81.80;;;;;;5084581;28;20016;-62
2024/01/05 03:26:55;;;;;;;11.30;3.20;;;10.60;81.80;;;;;;5077381;28;20500;-62
2024/01/05 03:29:21;;;;;;;9.48;2.58;;;10.60;81.80;;;;;;5086716;28;20074;-62
2024/01/05 03:31:47;;;;;;;6.88;2.17;;;10.70;81.80;;;;;;5073286;28;20036;-62
2024/01/05 03:34:14;;;;;;;11.20;1.98;;;10.70;81.80;;;;;;5080798;28;20047;-62
2024/01/05 03:36:40;;;;;;;8.00;2.10;;;10.70;81.80;;;;;;5077244;28;20086;-62
2024/01/05 03:39:07;;;;;;;6.20;2.63;;;10.70;81.80;;;;;;5078379;28;20037;-62
2024/01/05 03:41:33;;;;;;;8.85;2.38;;;10.70;81.80;;;;;;5071383;28;20104;-62
2024/01/05 03:43:58;;;;;;;5.45;2.00;;;10.70;81.80;;;;;;5072679;28;20044;-62
2024/01/05 03:46:24;;;;;;;6.97;2.53;;;10.70;81.80;;;;;;5082120;28;20078;-62
2024/01/05 03:48:50;;;;;;;5.97;1.63;;;10.70;81.80;;;;;;5077662;28;20036;-62
2024/01/05 03:51:16;;;;;;;7.03;2.45;;;10.70;81.80;;;;;;5073918;28;20412;-62
2024/01/05 03:53:43;;;;;;;6.80;2.08;;;10.60;81.70;;;;;;5073687;28;20024;-62
2024/01/05 03:56:09;;;;;;;9.75;2.47;;;10.70;81.80;;;;;;5073961;28;20020;-62
2024/01/05 03:58:35;;;;;;;6.88;2.35;;;10.70;81.70;;;;;;5074343;28;20059;-62
2024/01/05 04:01:02;;;;;;;8.00;2.22;;;10.70;81.80;;;;;;5073129;28;20338;-62
2024/01/05 04:03:28;;;;;;;8.30;2.70;;;10.70;81.80;;;;;;5073854;28;20071;-62
2024/01/05 04:05:54;;;;;;;7.80;2.20;;;10.70;81.70;;;;;;5073919;28;20070;-62
2024/01/05 04:08:20;;;;;;;7.68;2.15;;;10.70;81.60;;;;;;5056577;28;20036;-62
2024/01/05 04:10:48;;;;;;;9.35;2.05;;;10.70;81.60;;;;;;5096232;28;20020;-62
2024/01/05 04:13:14;;;;;;;7.93;1.92;;;10.70;81.60;;;;;;5073882;28;20364;-62
2024/01/05 04:15:40;;;;;;;9.43;2.67;;;10.70;81.60;;;;;;5072720;28;20032;-62
2024/01/05 04:18:07;;;;;;;7.90;2.10;;;10.70;81.50;;;;;;5055992;28;20032;-62
2024/01/05 04:20:33;;;;;;;8.57;2.20;;;10.70;81.50;;;;;;5076561;28;20036;-62
2024/01/05 04:23:00;;;;;;;8.98;2.42;;;10.70;81.50;;;;;;5076886;28;20028;-62
2024/01/05 04:25:27;;;;;;;7.03;2.03;;;10.70;81.50;;;;;;5073090;28;20025;-62
2024/01/05 04:27:52;;;;;;;9.57;2.38;;;10.70;81.50;;;;;;5074613;28;20449;-62
2024/01/05 04:30:20;;;;;;;9.93;2.83;;;10.70;81.50;;;;;;5080755;28;20118;-62
2024/01/05 04:32:47;;;;;;;9.20;2.20;;;10.70;81.50;;;;;;5077388;28;20068;-62
2024/01/05 04:35:12;;;;;;;5.63;2.40;;;10.70;81.40;;;;;;5076368;28;20028;-62
2024/01/05 04:37:38;;;;;;;9.32;2.38;;;10.70;81.40;;;;;;5074962;28;20032;-62
2024/01/05 04:40:06;;;;;;;7.82;2.22;;;10.70;81.30;;;;;;5066201;28;20335;-62
2024/01/05 04:42:32;;;;;;;8.50;2.22;;;10.70;81.30;;;;;;5055622;28;20036;-62
2024/01/05 04:44:58;;;;;;;10.00;2.60;;;10.70;81.30;;;;;;5073434;28;20037;-62
2024/01/05 04:47:24;;;;;;;9.25;2.47;;;10.70;81.30;;;;;;5064772;28;20035;-62
2024/01/05 04:49:50;;;;;;;8.68;2.35;;;10.70;81.30;;;;;;5065310;28;20040;-62
2024/01/05 04:52:16;;;;;;;7.65;2.35;;;10.70;81.90;;;;;;5047136;28;20032;-62
2024/01/05 04:54:42;;;;;;;7.07;1.88;;;10.70;81.20;;;;;;5067721;28;20040;-62
2024/01/05 04:57:08;;;;;;;10.38;3.00;;;10.70;81.10;;;;;;5064085;28;20461;-62
2024/01/05 04:59:34;;;;;;;9.63;2.20;;;10.70;81.10;;;;;;5059479;28;20037;-62
2024/01/05 05:02:00;;;;;;;5.88;2.05;;;10.70;81.10;;;;;;5065489;28;20370;-62
2024/01/05 05:04:26;;;;;;;6.97;2.10;;;10.70;81.00;;;;;;5067742;28;20154;-61
2024/01/05 05:06:53;;;;;;;4.57;1.75;;;10.70;81.10;;;;;;5078182;28;20111;-62
2024/01/05 05:09:18;;;;;;;7.28;2.15;;;10.70;80.90;;;;;;5091726;28;20070;-62
2024/01/05 05:11:44;;;;;;;7.60;2.20;;;10.70;80.90;;;;;;5077302;28;20416;-61
2024/01/05 05:14:10;;;;;;;6.63;2.03;;;10.70;80.90;;;;;;5076366;28;20054;-62
2024/01/05 05:16:36;;;;;;;8.07;1.88;;;10.70;80.80;;;;;;5078031;28;20031;-62
2024/01/05 05:19:04;;;;;;;6.43;2.00;;;10.70;80.80;;;;;;5076219;28;20115;-62
2024/01/05 05:21:30;;;;;;;5.88;2.10;;;10.70;80.70;;;;;;5078592;28;20044;-62
2024/01/05 05:23:56;;;;;;;5.70;1.95;;;10.70;80.60;;;;;;5075190;28;20115;-61
2024/01/05 05:26:22;;;;;;;5.35;1.88;;;10.70;80.40;;;;;;5075787;28;20063;-62
2024/01/05 05:28:48;;;;;;;7.20;1.70;;;10.70;80.50;;;;;;5058210;28;20041;-62
2024/01/05 05:31:14;;;;;;;8.30;1.75;;;10.70;80.50;;;;;;5081887;28;20043;-62
2024/01/05 05:33:39;;;;;;;8.93;1.83;;;10.70;80.40;;;;;;5061033;28;20117;-62
2024/01/05 05:36:05;;;;;;;7.28;1.98;;;10.70;80.40;;;;;;5075271;28;20044;-62
2024/01/05 05:38:31;;;;;;;6.28;1.70;;;10.70;80.40;;;;;;5079791;28;20036;-62
2024/01/05 05:40:57;;;;;;;6.50;1.83;;;10.70;80.40;;;;;;5074630;28;20024;-61
2024/01/05 05:43:23;;;;;;;8.18;1.92;;;10.70;80.40;;;;;;5073194;28;20020;-62
2024/01/05 05:45:49;;;;;;;8.43;2.25;;;10.70;80.40;;;;;;5068194;28;20108;-62
2024/01/05 05:48:15;;;;;;;5.93;1.80;;;10.60;80.30;;;;;;5077625;28;20086;-62
2024/01/05 05:50:41;;;;;;;7.75;1.92;;;10.60;80.30;;;;;;5076662;28;20032;-62
2024/01/05 05:53:08;;;;;;;7.57;1.90;;;10.70;80.30;;;;;;5076335;28;20062;-62
2024/01/05 05:55:34;;;;;;;6.28;1.95;;;10.70;80.90;;;;;;5078794;28;20043;-75
2024/01/05 05:58:00;;;;;;;7.75;2.15;;;10.70;80.30;;;;;;5082049;28;20461;-74
2024/01/05 06:00:26;;;;;;;7.50;2.20;;;10.70;80.20;;;;;;5073490;28;20016;-72
2024/01/05 06:02:51;;;;;;;9.25;2.30;;;10.70;80.20;;;;;;5063498;28;20033;-73
2024/01/05 06:05:17;;;;;;;8.48;2.20;;;10.70;80.10;;;;;;5075323;28;20099;-74
2024/01/05 06:07:43;;;;;;;6.93;1.88;;;10.70;80.10;;;;;;5081061;28;20020;-75
2024/01/05 06:10:09;;;;;;;6.97;1.92;;;10.70;80.00;;;;;;5074196;28;20422;-74
2024/01/05 06:12:34;;;;;;;7.18;1.85;;;10.70;80.00;;;;;;5075251;28;20052;-74
2024/01/05 06:15:00;;;;;;;7.38;1.92;;;10.70;80.00;;;;;;5074450;28;20074;-74
2024/01/05 06:17:26;;;;;;;6.13;2.10;;;10.70;79.90;;;;;;5074217;28;20124;-74
2024/01/05 06:19:52;;;;;;;6.70;1.77;;;10.80;79.90;;;;;;5089436;28;20051;-74
2024/01/05 06:22:18;;;;;;;6.50;1.67;;;10.80;79.80;;;;;;5075854;28;20479;-75
2024/01/05 06:24:46;;;;;;;5.35;2.03;;;10.80;79.70;;;;;;5088177;28;20039;-74
2024/01/05 06:27:13;;;;;;;5.18;1.73;;;10.90;79.70;;;;;;5074069;28;20036;-75
2024/01/05 06:29:38;;;;;;;6.57;1.90;;;10.80;79.60;;;;;;5075212;28;20029;-72
2024/01/05 06:32:05;;;;;;;8.43;2.13;;;10.90;79.60;;;;;;5073542;28;20062;-73
2024/01/05 06:34:30;;;;;;;5.82;1.30;;;10.90;79.50;;;;;;5102668;28;20028;-76
2024/01/05 06:36:56;;;;;;;5.15;1.50;;;10.90;79.50;;;;;;5085858;28;20112;-75
2024/01/05 06:39:22;;;;;;;7.57;1.92;;;10.90;79.40;;;;;;5076267;28;20469;-72
2024/01/05 06:41:48;;;;;;;5.25;1.63;;;10.90;79.30;;;;;;5077845;28;20036;-74
2024/01/05 06:44:15;;;;;;;5.07;1.58;;;10.80;79.20;;;;;;5079449;28;20178;-74
2024/01/05 06:46:40;;;;;;;6.78;1.60;;;10.80;79.20;;;;;;5074413;28;20438;-73
2024/01/05 06:49:06;;;;;;;5.10;1.10;;;10.80;79.20;;;;;;5079095;28;20081;-75
2024/01/05 06:51:39;;;;;;;6.15;1.90;;;10.80;79.20;;;;;;5062262;28;20032;-73
2024/01/05 06:54:06;;;;;;;5.32;1.35;;;10.70;79.10;;;;;;5075664;28;20032;-74
2024/01/05 06:56:32;;;;;;;7.78;1.73;;;10.80;79.20;;;;;;5074569;28;20568;-71
2024/01/05 06:59:03;;;;;;;6.53;1.55;;;10.80;79.20;;;;;;5081495;28;20384;-76
2024/01/05 07:01:29;;;;;;;3.92;1.27;;;10.80;79.10;;;;;;5071358;28;20116;-75
2024/01/05 07:03:54;;;;;;;5.78;1.38;;;10.80;79.10;;;;;;5074554;28;20104;-75
2024/01/05 07:06:20;;;;;;;8.95;1.65;;;10.80;79.00;;;;;;5075719;28;20020;-72
2024/01/05 07:08:46;;;;;;;8.00;1.75;;;10.70;79.60;;;;;;5073765;28;20403;-75
2024/01/05 07:11:22;;;;;;;5.97;1.38;;;10.80;78.90;;;;;;5073233;28;20036;-72
2024/01/05 07:13:48;;;;;;;7.47;1.50;;;10.80;78.80;;;;;;5080039;28;20428;-76
2024/01/05 07:16:21;;;;;;;7.85;1.70;;;10.70;78.80;;;;;;5082745;28;20380;-75
2024/01/05 07:18:47;;;;;;;6.68;1.63;;;10.70;78.70;;;;;;5063143;28;20036;-74
2024/01/05 07:21:14;;;;;;;7.20;1.75;;;10.70;78.60;;;;;;5072397;28;20045;-75
2024/01/05 07:23:40;;;;;;;5.25;1.70;;;10.70;78.50;;;;;;5073332;28;20048;-75
2024/01/05 07:26:06;;;;;;;4.50;1.48;;;10.70;78.40;;;;;;5074500;28;20454;-76
2024/01/05 07:28:31;;;;;;;5.82;1.55;;;10.70;78.40;;;;;;5073467;28;20028;-75
2024/01/05 07:30:57;;;;;;;5.85;1.35;;;10.70;78.40;;;;;;5075246;28;20016;-77
2024/01/05 07:33:23;;;;;;;5.70;1.77;;;10.70;78.40;;;;;;5074260;28;20107;-75
2024/01/05 07:35:49;;;;;;;5.07;1.60;;;10.70;78.40;;;;;;5072496;28;20158;-75
2024/01/05 07:38:18;;;;;;;5.95;1.50;;;10.70;78.40;;;;;;5073510;28;20020;-76
2024/01/05 07:40:43;;;;;;;6.10;1.67;;;10.70;78.40;;;;;;5077165;28;20445;-75
2024/01/05 07:43:12;;;;;;;6.60;1.65;;;10.70;78.40;;;;;;5077472;28;20017;-74
2024/01/05 07:45:38;;;;;;;4.30;1.45;;;10.70;78.50;;;;;;5071153;28;20040;-73
2024/01/05 07:48:05;;;;;;;5.45;1.40;;;10.70;78.50;;;;;;5073141;28;20464;-72
2024/01/05 07:50:31;;;;;;;6.88;1.85;;;10.70;78.50;;;;;;5074326;28;20024;-73
2024/01/05 07:52:57;;;;;;;3.67;1.58;;;10.70;78.40;;;;;;5073645;28;20121;-72
2024/01/05 07:55:23;;;;;;;5.70;1.50;;;10.70;78.30;;;;;;5081879;28;20028;-73
2024/01/05 07:57:48;;;;;;;4.00;1.33;;;10.70;78.10;;;;;;5076575;28;20086;-73
2024/01/05 08:00:15;;;;;;;3.67;1.10;;;10.70;77.90;;;;;;5068945;28;20094;-74
2024/01/05 08:02:40;;;;;;;3.40;0.90;;;10.70;77.60;;;;;;5077322;28;20349;-70
2024/01/05 08:05:07;;;;;;;2.92;0.82;;;10.70;77.50;;;;;;5080871;28;20024;-71
2024/01/05 08:07:33;;;;;;;4.20;1.10;;;10.70;77.20;;;;;;5073407;28;20078;-72
2024/01/05 08:09:58;;;;;;;1.17;0.60;;;10.70;76.80;;;;;;5075755;28;20020;-71
2024/01/05 08:12:24;;;;;;;1.17;0.63;;;10.70;76.50;;;;;;5079181;28;20503;-74
2024/01/05 08:14:50;;;;;;;1.55;0.50;;;10.70;76.20;;;;;;5080843;28;20032;-74
2024/01/05 08:17:20;;;;;;;0.65;0.40;;;10.70;75.90;;;;;;5075224;28;20032;-76
2024/01/05 08:19:46;;;;;;;2.00;0.50;;;10.70;75.50;;;;;;5092241;28;20028;-73
2024/01/05 08:22:12;;;;;;;0.95;0.50;;;10.70;75.30;;;;;;5081304;28;20044;-75
2024/01/05 08:24:40;;;;;;;1.20;0.40;;;10.70;75.10;;;;;;5074887;28;20460;-75
2024/01/05 08:27:05;;;;;;;1.50;0.60;;;10.70;75.00;;;;;;5077080;28;20034;-76
2024/01/05 08:29:33;;;;;;;3.05;0.70;;;10.70;74.80;;;;;;5079698;28;20414;-74
2024/01/05 08:32:02;;;;;;;0.63;0.57;;;10.60;74.70;;;;;;5094858;28;20349;-72
2024/01/05 08:34:29;;;;;;;0.30;0.30;;;10.60;74.70;;;;;;5077642;28;20035;-75
2024/01/05 08:36:55;;;;;;;1.48;0.68;;;10.60;74.60;;;;;;5077817;28;20036;-76
2024/01/05 08:39:21;;;;;;;1.58;0.70;;;10.60;74.30;;;;;;5081746;28;20344;-75
2024/01/05 08:41:46;;;;;;;2.00;0.60;;;10.60;74.10;;;;;;5085838;28;20041;-72
2024/01/05 08:44:14;;;;;;;1.58;0.60;;;10.60;74.10;;;;;;5070310;28;20036;-76
2024/01/05 08:46:41;;;;;;;1.08;0.50;;;10.60;74.00;;;;;;5082960;28;20431;-75
2024/01/05 08:49:07;;;;;;;2.05;0.68;;;10.50;73.80;;;;;;5096354;28;20046;-76
2024/01/05 08:51:32;;;;;;;1.65;0.60;;;10.60;73.90;;;;;;5080434;28;20111;-74
2024/01/05 08:54:01;;;;;;;1.45;0.70;;;10.50;73.90;;;;;;5077635;28;20444;-75
2024/01/05 08:56:27;;;;;;;2.60;0.95;;;10.60;74.00;;;;;;5076814;28;20429;-75
2024/01/05 08:58:53;;;;;;;2.35;0.88;;;10.50;74.00;;;;;;5077508;28;20040;-74
2024/01/05 09:01:19;;;;;;;1.25;0.70;;;10.50;74.10;;;;;;5067280;28;20021;-75
2024/01/05 09:03:45;;;;;;;1.15;0.60;;;10.40;74.20;;;;;;5082724;28;20366;-74
2024/01/05 09:06:11;;;;;;;2.30;1.00;;;10.40;74.50;;;;;;5074956;28;20020;-75
2024/01/05 09:08:37;;;;;;;2.65;0.80;;;10.30;74.70;;;;;;5063426;28;20119;-75
2024/01/05 09:11:04;;;;;;;1.92;0.75;;;10.30;75.10;;;;;;5075693;28;20040;-75
2024/01/05 09:13:30;;;;;;;1.70;0.70;;;10.20;75.30;;;;;;5075435;28;20033;-73
2024/01/05 09:15:56;;;;;;;2.22;0.98;;;10.20;75.40;;;;;;5077075;28;20086;-74
2024/01/05 09:18:22;;;;;;;2.63;0.88;;;10.20;75.50;;;;;;5074942;28;20036;-75
2024/01/05 09:20:47;;;;;;;3.10;1.10;;;10.20;75.70;;;;;;5076918;28;20086;-73
2024/01/05 09:23:13;;;;;;;2.78;1.00;;;10.20;75.90;;;;;;5087477;28;20017;-73
2024/01/05 09:25:39;;;;;;;1.48;0.80;;;10.10;76.00;;;;;;5079016;28;20024;-75
2024/01/05 09:28:06;;;;;;;0.98;0.60;;;10.20;76.20;;;;;;5057573;28;20024;-74
2024/01/05 09:30:32;;;;;;;2.10;0.85;;;10.10;76.10;;;;;;5083063;28;20064;-74
2024/01/05 09:32:58;;;;;;;5.43;0.82;;;10.10;76.10;;;;;;5075061;28;20067;-75
2024/01/05 09:35:25;;;;;;;3.75;1.13;;;10.10;76.10;;;;;;5076487;28;20020;-74
2024/01/05 09:37:52;;;;;;;4.22;1.27;;;10.10;76.10;;;;;;5075914;28;20094;-73
2024/01/05 09:40:17;;;;;;;4.85;1.52;;;10.00;76.10;;;;;;5081300;28;20037;-74
2024/01/05 09:42:51;;;;;;;3.72;1.30;;;10.10;76.00;;;;;;5076907;28;20036;-76
2024/01/05 09:45:21;;;;;;;2.15;0.90;;;10.00;75.80;;;;;;5076121;28;20412;-74
2024/01/05 09:47:49;;;;;;;3.22;0.80;;;10.10;75.80;;;;;;5076301;28;20032;-74
2024/01/05 09:50:18;;;;;;;0.95;0.55;;;10.10;75.90;;;;;;5085458;28;20032;-72
2024/01/05 09:52:44;;;;;;;2.22;0.80;;;10.10;75.90;;;;;;5085433;28;20039;-73
2024/01/05 09:55:11;;;;;;;2.05;0.70;;;10.10;75.80;;;;;;5086079;28;20115;-73
2024/01/05 09:57:40;;;;;;;0.90;0.55;;;10.00;75.90;;;;;;5081684;28;20103;-73
2024/01/05 10:00:12;;;;;;;0.70;0.55;;;10.00;75.80;;;;;;5089566;28;20449;-73
2024/01/05 10:02:44;;;;;;;;;;;10.10;75.80;;;;;;5077932;28;20027;-73
2024/01/05 10:05:12;;;;;;;0.88;0.60;;;10.00;75.60;;;;;;5086645;28;19916;-73
2024/01/05 10:07:42;;;;;;;0.63;0.47;;;10.00;75.90;;;;;;5076108;28;20166;-73
2024/01/05 10:10:10;;;;;;;0.43;0.43;;;10.00;75.70;;;;;;5076651;28;20032;-72
2024/01/05 10:12:37;;;;;;;1.67;0.70;;;10.00;75.70;;;;;;5075528;28;20031;-73
2024/01/05 10:15:05;;;;;;;1.35;0.50;;;9.90;75.50;;;;;;5080132;28;20333;-73
2024/01/05 10:17:30;;;;;;;0.40;0.40;;;10.00;75.50;;;;;;5076251;28;20024;-76
2024/01/05 10:20:11;;;;;;;0.85;0.50;;;10.00;75.50;;;;;;5082029;28;20542;-75
2024/01/05 10:22:37;;;;;;;0.55;0.45;;;10.00;75.40;;;;;;5079889;28;20085;-76
2024/01/05 10:25:22;;;;;;;1.05;0.52;;;10.00;75.40;;;;;;5083736;28;20526;-75
2024/01/05 10:27:49;;;;;;;0.98;0.60;;;10.00;75.40;;;;;;5077445;28;20020;-76
2024/01/05 10:30:28;;;;;;;0.85;0.50;;;10.00;75.50;;;;;;5077657;28;20412;-72
2024/01/05 10:33:07;;;;;;;1.02;0.60;;;9.90;75.60;;;;;;5079871;28;20126;-76
2024/01/05 10:35:36;;;;;;;0.88;0.60;;;9.90;75.60;;;;;;5090300;28;20023;-75
2024/01/05 10:38:03;;;;;;;3.25;1.10;;;9.90;75.90;;;;;;5079838;28;20119;-75
2024/01/05 10:40:29;;;;;;;1.75;0.90;;;9.80;76.00;;;;;;5083119;28;20028;-74
2024/01/05 10:43:16;;;;;;;1.25;0.73;;;9.80;76.10;;;;;;5079429;28;20089;-77
2024/01/05 10:45:42;;;;;;;2.67;0.93;;;9.80;76.20;;;;;;5084574;28;20067;-75
2024/01/05 10:48:13;;;;;;;1.80;0.90;;;9.80;76.30;;;;;;5085344;28;20044;-75
2024/01/05 10:50:41;;;;;;;2.28;0.90;;;9.70;76.40;;;;;;5094003;28;20020;-74
2024/01/05 10:53:08;;;;;;;1.85;1.10;;;9.70;76.50;;;;;;5074158;28;20028;-73
2024/01/05 10:55:35;;;;;;;1.92;0.95;;;9.70;76.50;;;;;;5088652;28;20028;-75
2024/01/05 10:58:01;;;;;;;2.97;1.20;;;9.70;76.60;;;;;;5068529;28;20032;-73
2024/01/05 11:00:28;;;;;;;2.47;1.13;;;9.70;76.50;;;;;;5081034;28;20437;-74
2024/01/05 11:03:14;;;;;;;2.03;1.00;;;9.70;76.60;;;;;;5080587;28;20498;-75
2024/01/05 11:05:42;;;;;;;2.25;1.05;;;9.70;76.60;;;;;;5081332;28;20088;-75
2024/01/05 11:08:33;;;;;;;2.53;1.25;;;9.80;76.70;;;;;;5083064;28;20030;-75
2024/01/05 11:11:03;;;;;;;2.92;1.15;;;9.80;76.60;;;;;;5084125;28;20024;-75
2024/01/05 11:13:44;;;;;;;1.20;0.80;;;9.80;76.60;;;;;;5081742;28;20024;-75
2024/01/05 11:16:32;;;;;;;2.88;1.15;;;9.80;76.60;;;;;;5089976;28;20020;-75
2024/01/05 11:19:23;;;;;;;2.95;1.00;;;9.80;76.60;;;;;;5081361;28;20032;-73
2024/01/05 11:21:56;;;;;;;1.20;0.80;;;9.80;76.60;;;;;;5094150;28;20440;-75
2024/01/05 11:24:23;;;;;;;3.53;1.38;;;9.80;76.70;;;;;;5081122;28;20097;-75
2024/01/05 11:26:49;;;;;;;1.67;0.80;;;9.80;76.70;;;;;;5082214;28;20416;-74
2024/01/05 11:29:47;;;;;;;2.67;1.10;;;9.80;76.70;;;;;;5081418;28;20059;-72
2024/01/05 11:32:35;;;;;;;3.83;1.25;;;9.90;76.70;;;;;;5073329;28;20418;-75
2024/01/05 11:35:02;;;;;;;3.83;1.30;;;9.90;76.70;;;;;;5077114;28;20033;-73
2024/01/05 11:37:32;;;;;;;1.35;0.90;;;9.90;76.70;;;;;;5089839;28;20363;-73
2024/01/05 11:39:59;;;;;;;2.58;1.00;;;9.90;76.70;;;;;;5101539;28;20028;-74
2024/01/05 11:42:25;;;;;;;3.17;1.20;;;9.90;76.60;;;;;;5087508;28;20036;-73
2024/01/05 11:44:58;;;;;;;2.78;1.40;;;9.90;76.60;;;;;;5089018;28;20142;-75
2024/01/05 11:47:44;;;;;;;3.10;1.30;;;10.00;76.60;;;;;;5083740;28;20028;-74
2024/01/05 11:50:33;;;;;;;1.70;1.02;;;9.90;76.40;;;;;;5084038;28;20047;-75
2024/01/05 11:53:27;;;;;;;3.55;1.27;;;9.90;76.70;;;;;;5078180;28;20032;-75
2024/01/05 11:55:56;;;;;;;3.67;1.65;;;9.90;76.80;;;;;;5075337;28;20119;-74
2024/01/05 11:58:31;;;;;;;2.20;1.08;;;9.90;76.90;;;;;;5069832;28;20476;-76
2024/01/05 12:01:00;;;;;;;2.13;1.05;;;9.80;76.80;;;;;;5071196;28;20374;-75
2024/01/05 12:03:27;;;;;;;2.63;1.42;;;9.80;76.90;;;;;;5080807;28;20078;-72
2024/01/05 12:05:56;;;;;;;3.08;1.27;;;9.80;77.00;;;;;;5066063;28;20048;-74
2024/01/05 12:08:22;;;;;;;5.25;1.20;;;9.90;77.00;;;;;;5083085;28;20017;-76
2024/01/05 12:10:55;;;;;;;2.25;1.20;;;9.90;77.00;;;;;;5067422;28;20021;-75
2024/01/05 12:13:26;;;;;;;3.67;1.30;;;9.90;76.90;;;;;;5071218;28;20044;-75
2024/01/05 12:15:57;;;;;;;2.25;1.13;;;9.90;76.90;;;;;;5067827;28;20020;-74
2024/01/05 12:18:26;;;;;;;4.13;1.27;;;10.00;76.90;;;;;;5071406;28;20040;-75
2024/01/05 12:21:01;;;;;;;5.65;1.33;;;10.00;76.90;;;;;;5074157;28;20469;-77
2024/01/05 12:23:31;;;;;;;3.13;1.42;;;10.00;76.80;;;;;;5083249;28;20029;-76
2024/01/05 12:25:57;;;;;;;1.60;1.00;;;9.90;77.50;;;;;;5075041;28;20020;-77
2024/01/05 12:28:22;;;;;;;4.35;1.30;;;9.90;76.90;;;;;;5072917;28;20465;-76
2024/01/05 12:30:50;;;;;;;2.33;1.17;;;9.90;76.90;;;;;;5079587;28;20035;-76
2024/01/05 12:33:17;;;;;;;2.67;1.40;;;9.90;76.90;;;;;;5067549;28;20032;-75
2024/01/05 12:35:43;;;;;;;5.68;1.42;;;9.90;76.90;;;;;;5066929;28;20040;-75
2024/01/05 12:38:09;;;;;;;2.30;1.20;;;9.90;76.90;;;;;;5076263;28;20107;-72
2024/01/05 12:40:35;;;;;;;4.63;1.45;;;10.00;77.10;;;;;;5062217;28;20151;-71
2024/01/05 12:43:01;;;;;;;2.28;1.17;;;9.90;77.10;;;;;;5069470;28;20016;-71
2024/01/05 12:45:27;;;;;;;2.75;1.30;;;9.90;77.10;;;;;;5077256;28;20366;-69
2024/01/05 12:47:52;;;;;;;4.25;1.60;;;9.90;77.00;;;;;;5063219;28;20024;-69